Time;durP1;ratioP1;P1;durP2;ratioP2;P2;SDS_P1;SDS_P2;PMS_P1;PMS_P2;Temp;Humidity;BMP_temperature;BMP_pressure;BME280_temperature;BME280_humidity;BME280_pressure;Samples;Min_cycle;Max_cycle;Signal;HPM_P1;HPM_P2
2023/07/14 00:01:53;;;;;;;3.80;1.50;;;;;;;22.19;52.93;96954.28;10327588;28;20089;-33
2023/07/14 00:06:54;;;;;;;1.88;0.80;;;;;;;22.17;54.49;96959.41;10326795;28;20363;-35
2023/07/14 00:11:55;;;;;;;3.22;1.92;;;;;;;22.22;52.32;96951.72;10325507;28;20125;-32
2023/07/14 00:16:56;;;;;;;3.17;1.25;;;;;;;22.30;51.38;96952.47;10335600;28;20045;-32
2023/07/14 00:21:56;;;;;;;3.78;1.40;;;;;;;22.22;51.86;96931.31;10334708;28;20030;-33
2023/07/14 00:26:58;;;;;;;3.50;1.17;;;;;;;22.20;53.72;96938.97;10335440;28;20496;-32
2023/07/14 00:31:59;;;;;;;1.92;0.80;;;;;;;22.16;53.09;96934.75;10334429;28;20034;-32
2023/07/14 00:37:00;;;;;;;2.73;1.40;;;;;;;22.17;53.88;96941.56;10334328;28;20034;-33
2023/07/14 00:42:07;;;;;;;2.63;1.20;;;;;;;22.15;52.71;96930.50;10334463;28;20030;-33
2023/07/14 00:47:18;;;;;;;1.88;1.23;;;;;;;22.15;52.33;96927.94;10332950;28;20049;-32
2023/07/14 00:52:27;;;;;;;3.72;1.20;;;;;;;22.15;53.07;96933.06;10332948;28;20037;-33
2023/07/14 00:57:28;;;;;;;1.80;1.00;;;;;;;22.17;52.14;96933.91;10332195;28;20042;-32
2023/07/14 01:02:29;;;;;;;2.58;1.15;;;;;;;22.26;51.21;96912.53;10332281;28;20046;-33
2023/07/14 01:07:37;;;;;;;6.25;1.48;;;;;;;22.27;50.98;96909.97;10332684;28;20060;-33
2023/07/14 01:12:41;;;;;;;1.27;1.10;;;;;;;22.20;51.84;96910.91;10332906;28;20153;-33
2023/07/14 01:17:43;;;;;;;3.03;1.67;;;;;;;22.17;52.27;96899.88;10331717;28;20031;-33
2023/07/14 01:22:50;;;;;;;2.67;1.40;;;;;;;22.14;51.81;96903.31;10329287;28;20030;-33
2023/07/14 01:27:50;;;;;;;1.90;1.17;;;;;;;22.10;52.06;96886.38;10331765;28;20042;-32
2023/07/14 01:32:52;;;;;;;1.95;0.88;;;;;;;22.12;52.03;96891.44;10330672;28;20031;-33
2023/07/14 01:37:53;;;;;;;3.50;1.47;;;;;;;22.12;52.24;96884.66;10332261;28;20489;-33
2023/07/14 01:42:59;;;;;;;6.50;2.22;;;;;;;22.04;51.79;96886.44;10350084;28;20034;-33
2023/07/14 01:48:02;;;;;;;2.75;1.40;;;;;;;22.19;51.16;96886.25;10317329;28;20038;-33
2023/07/14 01:53:08;;;;;;;5.45;2.05;;;;;;;22.18;50.65;96876.94;10331744;28;20037;-32
2023/07/14 01:58:14;;;;;;;4.68;1.40;;;;;;;22.14;50.71;96890.56;10330508;28;20555;-33
2023/07/14 02:03:20;;;;;;;2.55;1.40;;;;;;;22.05;50.79;96890.66;10330499;28;20042;-33
2023/07/14 02:08:25;;;;;;;3.08;1.20;;;;;;;22.08;51.29;96887.25;10317205;28;20066;-32
2023/07/14 02:13:27;;;;;;;5.50;1.77;;;;;;;22.01;50.00;96878.84;10329707;28;20064;-33
2023/07/14 02:18:28;;;;;;;3.03;1.30;;;;;;;22.00;50.24;96868.63;10329663;28;20033;-33
2023/07/14 02:23:29;;;;;;;4.72;1.27;;;;;;;21.99;50.37;96865.22;10327001;28;20054;-32
2023/07/14 02:28:29;;;;;;;2.17;1.35;;;;;;;21.96;49.78;96867.81;10327004;28;20074;-32
2023/07/14 02:33:39;;;;;;;2.90;1.25;;;;;;;22.05;50.16;96860.06;10324871;28;20101;-32
2023/07/14 02:38:40;;;;;;;3.70;1.30;;;;;;;22.12;50.17;96855.72;10322451;28;20034;-32
2023/07/14 02:43:41;;;;;;;3.72;1.60;;;;;;;22.04;49.89;96850.75;10328720;28;20026;-33
2023/07/14 02:48:44;;;;;;;5.57;1.77;;;;;;;21.99;49.82;96857.59;10322750;28;20508;-32
2023/07/14 02:53:44;;;;;;;4.38;1.50;;;;;;;21.96;50.07;96844.88;10327388;28;20054;-32
2023/07/14 02:58:49;;;;;;;11.75;1.83;;;;;;;21.93;49.78;96837.28;10323266;28;20460;-34
2023/07/14 03:03:50;;;;;;;4.60;1.52;;;;;;;21.93;49.80;96829.63;10327597;28;20046;-32
2023/07/14 03:08:50;;;;;;;6.78;1.65;;;;;;;21.97;49.73;96833.81;10321844;28;20030;-33
2023/07/14 03:13:52;;;;;;;4.85;1.40;;;;;;;21.90;49.56;96821.19;10326694;28;20040;-32
2023/07/14 03:18:52;;;;;;;2.53;1.50;;;;;;;21.82;49.58;96812.78;10327054;28;20030;-33
2023/07/14 03:23:53;;;;;;;8.85;1.77;;;;;;;21.93;49.49;96816.88;10326184;28;20400;-33
2023/07/14 03:28:53;;;;;;;2.33;1.37;;;;;;;21.88;49.63;96816.09;10326973;28;20046;-32
2023/07/14 03:33:55;;;;;;;3.85;1.58;;;;;;;21.90;49.41;96816.91;10323134;28;20053;-33
2023/07/14 03:39:26;;;;;;;4.05;1.45;;;;;;;21.83;49.48;96814.47;10320649;28;20049;-33
2023/07/14 03:44:27;;;;;;;3.65;1.40;;;;;;;21.17;52.43;96813.44;10326935;28;20498;-33
2023/07/14 03:49:27;;;;;;;5.97;1.90;;;;;;;20.52;51.62;96813.06;10324897;28;20038;-33
2023/07/14 03:54:27;;;;;;;2.97;1.73;;;;;;;20.30;51.46;96814.88;10340157;28;20088;-33
2023/07/14 03:59:30;;;;;;;3.03;1.87;;;;;;;20.28;51.97;96812.34;10320477;28;20371;-32
2023/07/14 04:04:32;;;;;;;4.65;2.33;;;;;;;20.13;52.30;96811.59;10325835;28;20027;-32
2023/07/14 04:09:35;;;;;;;2.65;1.85;;;;;;;20.10;52.44;96807.34;10318460;28;20440;-33
2023/07/14 04:14:35;;;;;;;4.23;1.80;;;;;;;19.95;52.84;96809.09;10325097;28;20042;-32
2023/07/14 04:19:36;;;;;;;5.77;2.10;;;;;;;19.91;52.81;96810.00;10326255;28;20800;-33
2023/07/14 04:24:36;;;;;;;5.13;2.20;;;;;;;20.17;52.44;96792.94;10326699;28;20039;-32
2023/07/14 04:29:36;;;;;;;4.63;2.10;;;;;;;19.74;53.84;96782.09;10321281;28;20121;-32
2023/07/14 04:34:37;;;;;;;3.63;2.00;;;;;;;20.04;52.77;96781.09;10326201;28;20062;-32
2023/07/14 04:39:37;;;;;;;4.70;2.03;;;;;;;19.37;53.77;96777.13;10326323;28;20042;-32
2023/07/14 04:44:38;;;;;;;3.77;2.70;;;;;;;19.66;53.73;96767.75;10326316;28;20034;-32
2023/07/14 04:49:39;;;;;;;6.30;3.10;;;;;;;19.75;54.48;96780.41;10325915;28;20038;-33
2023/07/14 04:54:40;;;;;;;3.77;1.73;;;;;;;20.66;52.50;96770.56;10325753;28;20038;-32
2023/07/14 04:59:43;;;;;;;2.78;2.13;;;;;;;20.86;51.86;96775.50;10329080;28;20112;-31
2023/07/14 05:04:43;;;;;;;7.03;2.10;;;;;;;20.98;51.60;96772.88;10332865;28;20061;-33
2023/07/14 05:09:44;;;;;;;7.63;2.42;;;;;;;21.00;51.63;96772.00;10332786;28;20041;-32
2023/07/14 05:14:44;;;;;;;5.13;2.25;;;;;;;20.88;52.28;96777.19;10333279;28;20049;-32
2023/07/14 05:19:44;;;;;;;6.80;2.65;;;;;;;20.92;52.99;96771.22;10332465;28;20033;-31
2023/07/14 05:24:45;;;;;;;3.57;1.70;;;;;;;21.03;53.03;96777.06;10333080;28;20057;-32
2023/07/14 05:29:46;;;;;;;4.17;1.83;;;;;;;21.07;53.00;96778.69;10332008;28;20041;-32
2023/07/14 05:34:48;;;;;;;5.22;1.80;;;;;;;21.10;53.25;96771.06;10333003;28;20019;-32
2023/07/14 05:39:50;;;;;;;2.72;1.58;;;;;;;21.15;53.10;96764.19;10331970;28;20037;-32
2023/07/14 05:44:51;;;;;;;5.95;1.67;;;;;;;21.27;53.18;96766.63;10332380;28;20038;-31
2023/07/14 05:49:51;;;;;;;4.25;1.90;;;;;;;21.32;53.30;96759.78;10323347;28;20029;-33
2023/07/14 05:54:52;;;;;;;5.18;1.60;;;;;;;21.37;52.99;96744.44;10330344;28;20026;-33
2023/07/14 05:59:52;;;;;;;4.05;1.92;;;;;;;21.41;52.84;96739.28;10331565;28;20385;-32
2023/07/14 06:04:53;;;;;;;5.88;1.80;;;;;;;21.42;53.15;96735.91;10331068;28;20409;-32
2023/07/14 06:09:53;;;;;;;4.28;1.70;;;;;;;21.42;53.07;96730.81;10330190;28;20046;-33
2023/07/14 06:14:56;;;;;;;2.67;1.47;;;;;;;21.44;53.32;96734.19;10330511;28;20044;-32
2023/07/14 06:19:56;;;;;;;2.78;1.50;;;;;;;21.44;53.38;96720.59;10330861;28;20130;-32
2023/07/14 06:24:56;;;;;;;2.23;1.53;;;;;;;21.46;53.32;96722.28;10330624;28;20491;-33
2023/07/14 06:29:57;;;;;;;2.33;1.33;;;;;;;21.48;53.37;96723.09;10325352;28;20485;-32
2023/07/14 06:34:57;;;;;;;3.10;1.53;;;;;;;21.61;53.20;96718.69;10330766;28;20027;-32
2023/07/14 06:39:57;;;;;;;1.87;1.27;;;;;;;21.68;53.10;96711.00;10329574;28;20277;-33
2023/07/14 06:44:58;;;;;;;1.53;1.23;;;;;;;21.67;52.95;96706.78;10330448;28;20034;-33
2023/07/14 06:49:58;;;;;;;3.30;1.40;;;;;;;21.59;53.36;96698.34;10327931;28;20046;-33
2023/07/14 06:55:01;;;;;;;1.80;1.38;;;;;;;21.57;53.53;96705.13;10329418;28;20034;-33
2023/07/14 07:00:05;;;;;;;1.60;1.23;;;;;;;21.58;53.62;96706.84;10328735;28;20030;-33
2023/07/14 07:05:07;;;;;;;4.10;1.52;;;;;;;21.57;53.75;96702.59;10329193;28;20046;-31
2023/07/14 07:10:08;;;;;;;1.92;1.05;;;;;;;21.58;53.80;96699.22;10327709;28;20037;-32
2023/07/14 07:15:11;;;;;;;1.23;0.90;;;;;;;21.57;53.75;96694.13;10329149;28;20217;-33
2023/07/14 07:20:12;;;;;;;2.08;1.52;;;;;;;21.60;53.72;96684.75;10328115;28;20045;-34
2023/07/14 07:25:13;;;;;;;2.03;1.23;;;;;;;21.76;53.20;96683.72;10327413;28;20405;-32
2023/07/14 07:30:14;;;;;;;2.03;1.08;;;;;;;21.83;53.17;96672.56;10323647;28;20045;-32
2023/07/14 07:35:15;;;;;;;1.77;1.20;;;;;;;21.73;53.08;96665.91;10328292;28;20056;-32
2023/07/14 07:40:17;;;;;;;3.97;1.30;;;;;;;21.70;53.83;96665.94;10321991;28;20044;-33
2023/07/14 07:45:17;;;;;;;2.22;1.27;;;;;;;21.67;53.97;96663.44;10325983;28;20301;-33
2023/07/14 07:50:18;;;;;;;11.83;1.77;;;;;;;21.66;54.25;96659.19;10325382;28;20045;-33
2023/07/14 07:55:20;;;;;;;4.57;1.48;;;;;;;21.67;54.03;96645.63;10327102;28;20045;-32
2023/07/14 08:00:20;;;;;;;3.03;1.48;;;;;;;21.67;54.64;96640.53;10326650;28;20043;-33
2023/07/14 08:05:21;;;;;;;10.48;1.85;;;;;;;21.69;54.61;96638.78;10326866;28;20472;-32
2023/07/14 08:10:21;;;;;;;5.37;1.60;;;;;;;21.76;54.91;96634.44;10326635;28;20038;-32
2023/07/14 08:15:22;;;;;;;4.75;1.50;;;;;;;21.91;54.43;96639.31;10326943;28;20061;-33
2023/07/14 08:20:22;;;;;;;6.93;1.90;;;;;;;21.90;54.43;96643.56;10326134;28;20096;-31
2023/07/14 08:25:23;;;;;;;4.28;1.13;;;;;;;21.82;54.53;96640.28;10326573;28;20070;-33
2023/07/14 08:30:24;;;;;;;4.43;1.48;;;;;;;21.76;54.78;96653.13;10326147;28;20038;-33
2023/07/14 08:35:25;;;;;;;3.38;1.25;;;;;;;21.74;54.81;96646.38;10330887;28;20030;-33
2023/07/14 08:40:33;;;;;;;5.18;1.65;;;;;;;21.73;54.88;96640.41;10334315;28;20504;-31
2023/07/14 08:45:36;;;;;;;3.50;1.17;;;;;;;21.73;55.05;96645.50;10333906;28;20113;-32
2023/07/14 08:50:38;;;;;;;3.22;1.00;;;;;;;21.74;55.01;96647.19;10327298;28;20117;-32
2023/07/14 08:55:39;;;;;;;7.75;1.23;;;;;;;21.73;54.97;96649.78;10333823;28;20488;-32
2023/07/14 09:00:49;;;;;;;4.18;1.40;;;;;;;21.87;55.27;96653.81;10333140;28;20026;-32
2023/07/14 09:05:54;;;;;;;3.58;1.30;;;;;;;21.98;54.98;96662.13;10333099;28;20038;-33
2023/07/14 09:11:05;;;;;;;5.30;1.60;;;;;;;21.86;55.10;96657.22;10330536;28;20112;-33
2023/07/14 09:16:10;;;;;;;5.97;1.30;;;;;;;21.80;55.14;96649.66;10332716;28;20038;-35
2023/07/14 09:21:21;;;;;;;6.93;1.48;;;;;;;21.78;55.08;96646.28;10332677;28;20104;-32
2023/07/14 09:26:31;;;;;;;6.20;1.13;;;;;;;21.76;55.10;96635.28;10332612;28;20092;-32
2023/07/14 09:31:44;;;;;;;4.07;1.10;;;;;;;21.76;55.06;96635.28;10332665;28;20034;-32
2023/07/14 09:36:46;;;;;;;2.95;1.30;;;;;;;21.75;55.13;96625.09;10331752;28;20062;-32
2023/07/14 09:41:50;;;;;;;5.60;1.45;;;;;;;21.74;55.34;96624.25;10338618;28;20085;-31
2023/07/14 09:46:51;;;;;;;2.65;1.10;;;;;;;21.82;55.54;96625.00;10330805;28;20041;-33
2023/07/14 09:52:10;;;;;;;5.38;1.83;;;;;;;21.97;55.17;96627.31;10331280;28;20556;-33
2023/07/14 09:57:14;;;;;;;2.30;1.20;;;;;;;21.98;54.79;96603.50;10330449;28;20408;-32
2023/07/14 10:02:15;;;;;;;5.55;1.42;;;;;;;21.86;55.16;96605.41;10330397;28;20073;-32
2023/07/14 10:07:24;;;;;;;7.82;1.33;;;;;;;21.81;55.20;96602.09;10331167;28;20133;-32
2023/07/14 10:12:25;;;;;;;3.10;1.00;;;;;;;21.78;55.28;96591.91;10322083;28;20458;-33
2023/07/14 10:17:30;;;;;;;3.70;1.30;;;;;;;21.76;55.31;96579.22;10330983;28;20041;-31
2023/07/14 10:22:31;;;;;;;2.88;0.93;;;;;;;21.76;55.16;96588.56;10328834;28;20045;-31
2023/07/14 10:27:32;;;;;;;2.15;1.20;;;;;;;21.76;55.42;96586.00;10329578;28;20093;-32
2023/07/14 10:32:49;;;;;;;3.00;0.80;;;;;;;21.75;55.48;96580.09;10329619;28;20082;-32
2023/07/14 10:37:52;;;;;;;;;;;;;;;21.92;55.55;96584.91;10322930;28;20030;-32
2023/07/14 10:43:04;;;;;;;2.17;1.20;;;;;;;22.00;55.28;96586.50;10329606;28;20368;-32
2023/07/14 10:48:16;;;;;;;13.27;1.88;;;;;;;21.97;55.49;96572.94;10326953;28;20030;-33
2023/07/14 10:53:36;;;;;;;13.20;2.20;;;;;;;21.83;55.25;96565.53;10329058;28;20058;-32
2023/07/14 10:58:46;;;;;;;14.63;2.30;;;;;;;21.82;55.64;96566.38;10322279;28;20089;-33
2023/07/14 11:03:59;;;;;;;9.40;2.50;;;;;;;21.81;55.57;96557.03;10325198;28;20029;-32
2023/07/14 11:08:59;;;;;;;16.25;2.05;;;;;;;21.79;55.70;96553.69;10328776;28;20046;-32
2023/07/14 11:14:28;;;;;;;23.63;3.05;;;;;;;21.79;55.53;96555.38;10328403;28;20041;-33
2023/07/14 11:19:39;;;;;;;19.70;4.90;;;;;;;21.84;56.98;96553.59;10327944;28;20041;-32
2023/07/14 11:25:16;;;;;;;16.02;3.35;;;;;;;22.03;56.59;96535.44;10328598;28;20049;-32
2023/07/14 11:30:21;;;;;;;15.00;3.23;;;;;;;22.03;56.08;96535.44;10320804;28;20045;-34
2023/07/14 11:35:52;;;;;;;12.33;3.23;;;;;;;21.95;55.95;96532.19;10327840;28;20477;-32
2023/07/14 11:40:53;;;;;;;15.48;3.95;;;;;;;21.89;55.83;96531.44;10323851;28;20049;-32
2023/07/14 11:45:58;;;;;;;5.13;2.10;;;;;;;21.84;55.82;96520.47;10327090;28;20038;-33
2023/07/14 11:51:17;;;;;;;9.07;2.35;;;;;;;21.81;55.76;96513.72;10327425;28;20044;-32
2023/07/14 11:56:24;;;;;;;13.48;2.30;;;;;;;21.81;56.10;96506.06;10326970;28;20416;-32
2023/07/14 12:01:28;;;;;;;10.40;2.95;;;;;;;21.80;55.78;96498.47;10326802;28;20038;-32
2023/07/14 12:06:49;;;;;;;7.10;2.17;;;;;;;21.80;56.00;96504.38;10325930;28;20049;-32
2023/07/14 12:11:53;;;;;;;13.85;2.83;;;;;;;21.99;56.36;96495.56;10326663;28;20019;-32
2023/07/14 12:16:54;;;;;;;6.97;2.42;;;;;;;22.10;56.31;96486.03;10326477;28;20035;-32
2023/07/14 12:22:10;;;;;;;10.35;2.20;;;;;;;22.04;55.96;96493.78;10324040;28;20035;-33
2023/07/14 12:27:23;;;;;;;8.00;1.75;;;;;;;21.95;55.66;96488.84;10324728;28;20034;-32
2023/07/14 12:32:24;;;;;;;6.20;1.77;;;;;;;21.86;55.98;96477.94;10324446;28;20062;-33
2023/07/14 12:37:25;;;;;;;8.87;2.00;;;;;;;21.83;55.84;96472.91;10326318;28;20145;-32
2023/07/14 12:42:25;;;;;;;9.32;1.58;;;;;;;21.82;55.88;96477.16;10333144;28;20289;-33
2023/07/14 12:47:25;;;;;;;5.60;1.60;;;;;;;21.81;55.99;96461.91;10324583;28;20049;-33
2023/07/14 12:52:33;;;;;;;5.45;2.17;;;;;;;21.80;56.33;96461.06;10326047;28;20041;-33
2023/07/14 12:57:36;;;;;;;7.18;2.25;;;;;;;21.88;57.35;96460.94;10325760;28;20042;-32
2023/07/14 13:02:37;;;;;;;5.95;2.10;;;;;;;22.07;56.66;96455.47;10326088;28;20512;-33
2023/07/14 13:07:44;;;;;;;6.18;2.10;;;;;;;22.11;56.16;96449.47;10325718;28;20100;-33
2023/07/14 13:12:45;;;;;;;4.97;1.90;;;;;;;22.00;56.14;96438.63;10325655;28;20113;-33
2023/07/14 13:17:47;;;;;;;7.95;2.60;;;;;;;21.92;55.91;96437.94;10325082;28;20164;-32
2023/07/14 13:23:09;;;;;;;9.88;1.73;;;;;;;21.91;56.09;96425.19;10331192;28;20053;-33
2023/07/14 13:28:39;;;;;;;5.43;1.88;;;;;;;21.85;56.26;96421.06;10333031;28;20042;-32
2023/07/14 13:33:40;;;;;;;10.85;2.50;;;;;;;21.85;56.12;96421.06;10332086;28;20480;-32
2023/07/14 13:38:42;;;;;;;19.03;2.70;;;;;;;21.82;56.18;96400.69;10331778;28;20128;-32
2023/07/14 13:43:44;;;;;;;18.63;3.15;;;;;;;21.79;56.39;96387.16;10324358;28;20304;-32
2023/07/14 13:48:44;;;;;;;12.00;2.88;;;;;;;22.02;57.50;96383.34;10331366;28;20109;-32
2023/07/14 13:53:45;;;;;;;14.83;3.63;;;;;;;22.15;57.56;96376.28;10330675;28;20049;-35
2023/07/14 13:58:48;;;;;;;9.10;1.85;;;;;;;22.07;56.68;96371.34;10331886;28;20461;-33
2023/07/14 14:03:50;;;;;;;11.18;2.92;;;;;;;21.95;56.26;96363.94;10328115;28;20135;-32
2023/07/14 14:08:50;;;;;;;14.45;2.30;;;;;;;21.89;56.21;96348.75;10331534;28;20034;-32
2023/07/14 14:13:50;;;;;;;27.30;4.93;;;;;;;21.95;57.74;96341.00;10329282;28;20148;-32
2023/07/14 14:18:51;;;;;;;13.77;2.10;;;;;;;21.90;56.70;96321.56;10323380;28;20096;-32
2023/07/14 14:23:51;;;;;;;17.63;2.30;;;;;;;21.87;56.49;96319.91;10330656;28;20034;-32
2023/07/14 14:28:52;;;;;;;31.27;3.00;;;;;;;21.89;57.87;96305.41;10330619;28;20505;-32
2023/07/14 14:33:52;;;;;;;18.60;3.15;;;;;;;22.12;57.48;96307.50;10329481;28;20296;-33
2023/07/14 14:38:53;;;;;;;11.80;2.47;;;;;;;22.19;57.21;96297.16;10327196;28;20049;-32
2023/07/14 14:43:54;;;;;;;16.43;3.20;;;;;;;22.03;59.23;96293.25;10327989;28;20030;-32
2023/07/14 14:48:55;;;;;;;9.63;2.55;;;;;;;22.00;57.87;96283.13;10330110;28;20034;-33
2023/07/14 14:53:57;;;;;;;8.97;2.67;;;;;;;21.97;59.23;96274.69;10328979;28;20026;-33
2023/07/14 14:59:07;;;;;;;19.23;4.78;;;;;;;21.93;58.70;96265.41;10325790;28;20591;-33
2023/07/14 15:04:20;;;;;;;14.70;3.28;;;;;;;21.98;59.10;96267.00;10325532;28;20045;-32
2023/07/14 15:09:21;;;;;;;21.13;5.63;;;;;;;22.20;59.53;96263.13;10328552;28;20118;-33
2023/07/14 15:14:25;;;;;;;12.63;3.45;;;;;;;22.15;58.97;96259.81;10329022;28;20045;-32
2023/07/14 15:19:25;;;;;;;16.48;3.17;;;;;;;22.07;58.46;96254.06;10327942;28;20401;-32
2023/07/14 15:24:26;;;;;;;11.77;3.72;;;;;;;22.02;57.82;96250.78;10328615;28;20042;-34
2023/07/14 15:29:26;;;;;;;13.17;3.53;;;;;;;21.97;57.75;96242.38;10321224;28;20049;-32
2023/07/14 15:34:26;;;;;;;11.85;4.10;;;;;;;22.11;58.49;96250.59;10327999;28;20049;-32
2023/07/14 15:39:27;;;;;;;10.00;3.30;;;;;;;22.24;58.56;96241.78;10327959;28;20042;-33
2023/07/14 15:44:28;;;;;;;7.20;2.50;;;;;;;22.18;57.98;96234.28;10327449;28;20042;-32
2023/07/14 15:49:29;;;;;;;7.65;2.22;;;;;;;22.08;57.77;96227.69;10327514;28;20285;-32
2023/07/14 15:54:34;;;;;;;10.40;3.00;;;;;;;22.02;57.55;96220.19;10327609;28;20061;-33
2023/07/14 15:59:34;;;;;;;6.90;2.85;;;;;;;21.99;57.80;96215.13;10324118;28;20045;-33
2023/07/14 16:04:34;;;;;;;7.27;2.40;;;;;;;22.00;57.79;96226.19;10327364;28;20045;-33
2023/07/14 16:09:35;;;;;;;7.53;2.43;;;;;;;22.18;58.03;96218.13;10327202;28;20446;-33
2023/07/14 16:14:36;;;;;;;8.00;2.50;;;;;;;22.24;57.72;96208.63;10327374;28;20057;-32
2023/07/14 16:19:37;;;;;;;7.50;1.98;;;;;;;22.11;57.73;96188.53;10323006;28;20120;-31
2023/07/14 16:24:39;;;;;;;6.15;2.80;;;;;;;22.06;57.58;96196.28;10326279;28;20072;-33
2023/07/14 16:29:39;;;;;;;6.75;2.10;;;;;;;22.02;57.82;96194.69;10326712;28;20090;-32
2023/07/14 16:34:41;;;;;;;8.77;3.00;;;;;;;21.99;57.51;96189.66;10320653;28;20127;-32
2023/07/14 16:39:43;;;;;;;6.03;2.00;;;;;;;21.97;57.61;96181.19;10326848;28;20207;-32
2023/07/14 16:44:44;;;;;;;7.43;2.60;;;;;;;22.15;57.95;96178.22;10325900;28;20034;-32
2023/07/14 16:49:44;;;;;;;4.35;1.83;;;;;;;22.22;57.58;96172.13;10326474;28;20545;-33
2023/07/14 16:54:45;;;;;;;11.17;2.63;;;;;;;22.17;57.52;96168.84;10327765;28;20030;-33
2023/07/14 16:59:45;;;;;;;11.10;2.47;;;;;;;22.08;57.66;96169.03;10333308;28;20081;-32
2023/07/14 17:04:45;;;;;;;5.83;1.80;;;;;;;22.03;57.59;96170.88;10334164;28;20034;-32
2023/07/14 17:09:46;;;;;;;6.17;2.10;;;;;;;22.00;57.46;96162.47;10328916;28;20030;-32
2023/07/14 17:14:46;;;;;;;4.97;2.05;;;;;;;21.94;57.56;96166.00;10333920;28;20034;-32
2023/07/14 17:19:47;;;;;;;4.97;2.63;;;;;;;22.05;58.34;96179.31;10332580;28;20489;-33
2023/07/14 17:24:49;;;;;;;5.17;2.13;;;;;;;22.21;57.92;96175.56;10333305;28;20346;-33
2023/07/14 17:29:50;;;;;;;4.68;1.70;;;;;;;22.24;57.57;96179.75;10326409;28;20404;-32
2023/07/14 17:34:51;;;;;;;5.13;1.63;;;;;;;22.13;57.62;96187.63;10332556;28;20014;-32
2023/07/14 17:39:51;;;;;;;2.75;1.90;;;;;;;22.06;57.73;96183.53;10332533;28;20415;-33
2023/07/14 17:44:52;;;;;;;3.00;1.70;;;;;;;22.00;57.69;96188.81;10331871;28;20423;-32
2023/07/14 17:49:52;;;;;;;6.82;3.00;;;;;;;21.99;57.60;96191.38;10332222;28;20037;-32
2023/07/14 17:54:53;;;;;;;4.30;2.23;;;;;;;21.96;57.73;96187.19;10332686;28;20027;-32
2023/07/14 17:59:53;;;;;;;5.23;1.70;;;;;;;22.13;57.99;96187.63;10329316;28;20033;-32
2023/07/14 18:04:54;;;;;;;4.35;1.92;;;;;;;22.27;58.22;96200.06;10331168;28;20027;-32
2023/07/14 18:09:54;;;;;;;6.17;1.97;;;;;;;22.19;57.24;96195.16;10331271;28;20038;-32
2023/07/14 18:14:54;;;;;;;7.27;2.50;;;;;;;22.10;57.60;96197.06;10324397;28;20030;-32
2023/07/14 18:19:55;;;;;;;3.27;2.00;;;;;;;22.03;57.58;96186.16;10330354;28;20294;-33
2023/07/14 18:24:57;;;;;;;5.57;1.80;;;;;;;21.98;57.70;96182.06;10331788;28;20026;-32
2023/07/14 18:29:57;;;;;;;3.65;1.90;;;;;;;21.97;57.74;96185.47;10330072;28;20038;-32
2023/07/14 18:34:57;;;;;;;3.10;1.70;;;;;;;21.95;57.66;96188.06;10330599;28;20485;-32
2023/07/14 18:39:58;;;;;;;2.50;1.73;;;;;;;22.15;58.08;96190.97;10329686;28;20100;-32
2023/07/14 18:44:58;;;;;;;3.10;2.10;;;;;;;22.27;57.65;96180.50;10330022;28;20034;-33
2023/07/14 18:49:58;;;;;;;5.97;2.47;;;;;;;22.14;57.76;96181.66;10329560;28;20038;-33
2023/07/14 18:54:59;;;;;;;5.80;1.90;;;;;;;22.08;57.63;96179.25;10328082;28;20409;-32
2023/07/14 19:00:00;;;;;;;4.50;1.52;;;;;;;22.02;57.46;96179.41;10323384;28;20419;-33
2023/07/14 19:05:06;;;;;;;4.85;1.73;;;;;;;21.99;57.52;96176.91;10329001;28;20129;-33
2023/07/14 19:10:08;;;;;;;5.18;2.40;;;;;;;21.96;57.72;96183.78;10328953;28;20107;-32
2023/07/14 19:15:18;;;;;;;2.58;1.52;;;;;;;22.08;57.92;96193.72;10328603;28;20066;-33
2023/07/14 19:20:19;;;;;;;2.45;1.55;;;;;;;22.25;58.10;96197.56;10327357;28;20026;-32
2023/07/14 19:25:22;;;;;;;4.65;1.98;;;;;;;22.22;57.43;96209.56;10328913;28;20126;-32
2023/07/14 19:30:22;;;;;;;2.60;1.45;;;;;;;22.08;57.64;96204.72;10320411;28;20125;-32
2023/07/14 19:35:23;;;;;;;4.17;1.63;;;;;;;22.05;57.58;96220.09;10328230;28;20030;-32
2023/07/14 19:40:24;;;;;;;2.57;1.50;;;;;;;22.01;57.70;96228.72;10327540;28;20772;-32
2023/07/14 19:45:25;;;;;;;4.88;1.90;;;;;;;22.03;57.65;96232.06;10327952;28;20061;-32
2023/07/14 19:50:27;;;;;;;2.13;1.57;;;;;;;22.00;57.78;96233.84;10327821;28;20537;-32
2023/07/14 19:55:27;;;;;;;5.30;1.85;;;;;;;22.12;58.07;96242.06;10327637;28;20089;-32
2023/07/14 20:00:31;;;;;;;3.87;1.73;;;;;;;22.29;58.57;96245.06;10327117;28;20042;-33
2023/07/14 20:10:14;;;;;;;3.20;1.50;;;;;;;22.11;57.97;96250.59;10557263;27;1269322;-31
2023/07/14 20:15:18;;;;;;;5.53;2.00;;;;;;;22.09;58.00;96267.63;10596278;28;20031;-31
2023/07/14 20:20:19;;;;;;;5.18;1.90;;;;;;;22.03;57.80;96261.78;10561816;28;20077;-34
2023/07/14 20:25:20;;;;;;;6.15;1.73;;;;;;;22.01;57.80;96264.41;10565047;28;20389;-36
2023/07/14 20:30:22;;;;;;;3.77;1.80;;;;;;;21.97;57.86;96274.69;10566176;28;20039;-34
2023/07/14 20:35:24;;;;;;;3.10;2.10;;;;;;;22.17;58.13;96267.44;10564347;28;20655;-35
2023/07/14 20:40:26;;;;;;;3.45;1.80;;;;;;;22.31;58.47;96279.03;10578462;28;20123;-34
2023/07/14 20:45:27;;;;;;;2.42;1.58;;;;;;;22.20;57.70;96270.78;10567973;28;20096;-35
2023/07/14 20:50:28;;;;;;;4.43;2.07;;;;;;;22.12;57.86;96282.00;10570927;28;20454;-33
2023/07/14 20:55:30;;;;;;;2.90;2.00;;;;;;;22.04;57.79;96269.44;10568747;28;20123;-34
2023/07/14 21:00:31;;;;;;;6.28;1.85;;;;;;;22.00;57.85;96266.97;10573175;28;20453;-34
2023/07/14 21:05:31;;;;;;;3.58;1.33;;;;;;;21.96;58.28;96278.94;10555744;28;20040;-34
2023/07/14 21:10:32;;;;;;;3.57;1.60;;;;;;;21.96;57.82;96281.50;10566799;28;20039;-35
2023/07/14 21:15:32;;;;;;;2.70;2.00;;;;;;;22.14;57.57;96281.09;10568389;28;20070;-34
2023/07/14 21:20:33;;;;;;;1.90;1.30;;;;;;;22.26;57.20;96285.09;10541009;28;20069;-34
2023/07/14 21:25:33;;;;;;;1.35;1.20;;;;;;;22.16;57.34;96286.19;10528555;28;20523;-34
2023/07/14 21:30:33;;;;;;;3.07;1.50;;;;;;;22.04;57.61;96279.63;10552179;28;20052;-34
2023/07/14 21:35:34;;;;;;;3.97;1.70;;;;;;;21.96;57.63;96281.50;10536622;28;20032;-35
2023/07/14 21:40:34;;;;;;;2.33;1.10;;;;;;;21.93;57.69;96281.56;10545668;28;20281;-35
2023/07/14 21:45:35;;;;;;;2.65;1.33;;;;;;;21.92;57.84;96284.13;10543228;28;20036;-34
2023/07/14 21:50:35;;;;;;;2.13;1.50;;;;;;;21.90;57.61;96286.69;10540705;28;20597;-33
2023/07/14 21:55:36;;;;;;;3.35;1.60;;;;;;;22.15;57.50;96287.88;10530075;28;20432;-33
2023/07/14 22:00:36;;;;;;;2.50;1.33;;;;;;;22.24;57.06;96285.13;10537963;28;20044;-34
2023/07/14 22:05:37;;;;;;;2.97;1.33;;;;;;;22.16;57.26;96291.28;10551423;28;20040;-33
2023/07/14 22:10:38;;;;;;;1.73;1.10;;;;;;;22.02;57.42;96294.13;10526318;28;20306;-34
2023/07/14 22:15:41;;;;;;;2.70;1.48;;;;;;;21.95;57.63;96295.09;10556711;28;20043;-34
2023/07/14 22:20:41;;;;;;;1.67;1.40;;;;;;;21.92;57.57;96297.72;10533658;28;20413;-33
2023/07/14 22:25:42;;;;;;;3.25;1.40;;;;;;;21.88;57.64;96290.19;10550573;28;20038;-35
2023/07/14 22:30:47;;;;;;;1.50;1.15;;;;;;;21.87;57.71;96302.06;10549606;28;20077;-34
2023/07/14 22:35:50;;;;;;;2.15;1.45;;;;;;;22.08;57.43;96291.41;10538432;28;20102;-33
2023/07/14 22:40:56;;;;;;;2.17;1.63;;;;;;;22.24;57.20;96297.06;10535393;28;20549;-33
2023/07/14 22:45:57;;;;;;;2.57;1.37;;;;;;;22.17;56.92;96301.47;10537104;28;20085;-35
2023/07/14 22:51:00;;;;;;;1.57;1.27;;;;;;;22.07;57.30;96301.66;10534625;28;20274;-34
2023/07/14 22:56:00;;;;;;;1.75;1.25;;;;;;;21.98;57.67;96297.59;10529047;28;20274;-34
2023/07/14 23:01:04;;;;;;;3.63;1.53;;;;;;;21.94;57.62;96295.97;10532823;28;20400;-35
2023/07/14 23:06:13;;;;;;;1.33;1.20;;;;;;;21.92;57.50;96304.53;10534855;28;20024;-34
2023/07/14 23:11:36;;;;;;;2.58;1.00;;;;;;;21.90;57.65;96304.53;10524557;28;20074;-34
2023/07/14 23:16:36;;;;;;;1.88;1.05;;;;;;;22.09;57.78;96288.03;10531358;28;20043;-33
2023/07/14 23:21:39;;;;;;;2.17;1.40;;;;;;;22.24;57.05;96282.56;10527344;28;20378;-33
2023/07/14 23:26:39;;;;;;;2.15;1.40;;;;;;;22.19;56.86;96288.66;10542509;28;20111;-34
2023/07/14 23:31:43;;;;;;;3.30;1.30;;;;;;;22.07;57.23;96288.94;10548179;28;20720;-34